Terminal Aerodrome Forecast
Issued by NWS

Current Version | Previous Version | Text Only | Print | Product List | Glossary On
Versions: 1 2 3 4 5 6 7 8 9 10 11 12 13 14 15 16 17
000
FTUS43 KMQT 261500 AAB
TAFIWD
TAF AMD
KIWD 261519Z 2615/2712 36005KT 6SM -SN OVC025
      TEMPO 2615/2618 BKN008
     FM261800 34008KT 6SM -SN OVC015
     FM270600 35006KT 4SM -SN OVC007
      AMD LTD TO CLD VIS AND WIND=

USA.gov is the U.S. government's official web portal to all federal, state and local government web resources and services.